Time;durP1;ratioP1;P1;durP2;ratioP2;P2;SDS_P1;SDS_P2;PMS_P1;PMS_P2;Temp;Humidity;BMP_temperature;BMP_pressure;BME280_temperature;BME280_humidity;BME280_pressure;Samples;Min_cycle;Max_cycle;Signal;HPM_P1;HPM_P2
2023/01/27 00:02:13;;;;;;;24.60;14.23;;;;;;;-0.85;100.00;98429.47;4992033;28;20238;-79
2023/01/27 00:04:40;;;;;;;25.03;13.93;;;;;;;-0.89;100.00;98427.81;4995357;28;20692;-78
2023/01/27 00:07:06;;;;;;;22.27;13.53;;;;;;;-0.74;100.00;98424.94;4995895;28;20267;-80
2023/01/27 00:09:33;;;;;;;24.40;13.97;;;;;;;-0.80;100.00;98428.47;4996068;28;20210;-78
2023/01/27 00:14:44;;;;;;;23.67;14.90;;;;;;;-0.73;100.00;98430.09;4995875;28;20316;-78
2023/01/27 00:17:11;;;;;;;23.53;13.97;;;;;;;-0.67;100.00;98423.91;4995786;28;20253;-77
2023/01/27 00:19:37;;;;;;;21.00;12.80;;;;;;;-0.79;100.00;98419.84;4995410;28;20227;-78
2023/01/27 00:24:48;;;;;;;23.60;13.67;;;;;;;-0.80;100.00;98409.47;4995797;28;20880;-76
2023/01/27 00:27:15;;;;;;;24.00;14.27;;;;;;;-0.80;100.00;98417.25;4995641;28;20240;-78
2023/01/27 00:29:41;;;;;;;20.07;12.73;;;;;;;-0.85;100.00;98425.16;4995444;28;20694;-78
2023/01/27 00:34:53;;;;;;;20.90;12.30;;;;;;;-0.81;100.00;98415.56;4995717;28;20750;-78
2023/01/27 00:37:20;;;;;;;19.90;11.23;;;;;;;-0.76;100.00;98419.75;4995682;28;20235;-78
2023/01/27 00:39:47;;;;;;;18.83;10.73;;;;;;;-0.79;100.00;98421.56;4995144;28;20212;-77
2023/01/27 00:42:13;;;;;;;16.97;10.80;;;;;;;-0.86;100.00;98419.97;4995485;28;20653;-77
2023/01/27 00:45:47;;;;;;;20.00;11.20;;;;;;;-0.76;100.00;98421.47;4995332;28;20217;-77
2023/01/27 00:47:28;;;;;;;15.97;10.00;;;;;;;-0.79;100.00;98418.97;4994959;28;20660;-77
2023/01/27 00:49:55;;;;;;;18.07;11.10;;;;;;;-0.80;100.00;98414.66;4995064;28;20219;-78
2023/01/27 00:52:21;;;;;;;18.43;10.57;;;;;;;-0.82;100.00;98413.81;4995219;28;20226;-77
2023/01/27 00:54:48;;;;;;;15.77;10.43;;;;;;;-0.90;100.00;98410.53;4995197;28;20220;-77
2023/01/27 00:57:14;;;;;;;15.53;9.77;;;;;;;-0.91;100.00;98416.63;4994977;28;20237;-78
2023/01/27 00:59:41;;;;;;;16.20;9.23;;;;;;;-0.84;100.00;98423.38;4995016;28;20209;-76
2023/01/27 01:02:07;;;;;;;14.90;9.03;;;;;;;-0.81;100.00;98419.00;4995311;28;20219;-78
2023/01/27 01:04:35;;;;;;;15.80;9.70;;;;;;;-0.85;100.00;98419.09;4995087;28;20584;-77
2023/01/27 01:07:02;;;;;;;16.27;9.07;;;;;;;-0.79;100.00;98412.06;4994852;28;20341;-78
2023/01/27 01:09:29;;;;;;;16.70;9.43;;;;;;;-0.79;100.00;98416.38;4994560;28;20211;-79
2023/01/27 01:11:55;;;;;;;15.90;10.37;;;;;;;-0.84;100.00;98413.00;4994853;28;20221;-79
2023/01/27 01:14:22;;;;;;;14.83;9.63;;;;;;;-0.82;100.00;98413.81;4994924;28;20220;-78
2023/01/27 01:16:48;;;;;;;18.00;11.13;;;;;;;-0.74;100.00;98419.72;4994705;28;20225;-78
2023/01/27 01:19:15;;;;;;;18.67;11.50;;;;;;;-0.80;100.00;98423.28;4994439;28;20594;-77
2023/01/27 01:21:42;;;;;;;16.03;10.40;;;;;;;-0.67;100.00;98423.91;4994793;28;20216;-77
2023/01/27 01:24:09;;;;;;;17.33;11.10;;;;;;;-0.68;100.00;98422.22;4994546;28;20219;-77
2023/01/27 01:26:35;;;;;;;18.03;10.97;;;;;;;-0.62;100.00;98424.69;4994727;28;20229;-77
2023/01/27 01:29:02;;;;;;;14.07;9.77;;;;;;;-0.72;100.00;98421.41;4994407;28;20216;-77
2023/01/27 01:31:28;;;;;;;15.07;10.27;;;;;;;-0.79;100.00;98425.03;4994632;28;20220;-77
2023/01/27 01:33:55;;;;;;;19.67;11.83;;;;;;;-0.76;100.00;98430.13;4994434;28;20219;-77
2023/01/27 01:36:21;;;;;;;19.00;10.33;;;;;;;-0.76;100.00;98430.13;4994306;28;20241;-78
2023/01/27 01:38:54;;;;;;;16.37;10.77;;;;;;;-0.82;100.00;98416.41;4994039;28;20208;-78
2023/01/27 01:41:20;;;;;;;16.73;10.73;;;;;;;-0.82;100.00;98424.19;4994300;28;20276;-78
2023/01/27 01:43:47;;;;;;;18.50;10.33;;;;;;;-0.80;100.00;98427.66;4994412;28;20217;-77
2023/01/27 01:46:14;;;;;;;17.47;11.10;;;;;;;-0.79;100.00;98419.84;4994267;28;20246;-77
2023/01/27 01:48:43;;;;;;;18.67;12.07;;;;;;;-0.73;100.00;98424.91;4994138;28;20248;-77
2023/01/27 01:51:12;;;;;;;18.97;11.50;;;;;;;-0.74;100.00;98412.78;4993971;28;20215;-77
2023/01/27 01:53:43;;;;;;;17.57;11.43;;;;;;;-0.77;100.00;98412.00;4994435;28;20221;-78
2023/01/27 01:56:15;;;;;;;15.97;10.77;;;;;;;-0.83;100.00;98409.53;4994295;28;20233;-78
2023/01/27 01:58:44;;;;;;;18.33;10.77;;;;;;;-0.78;100.00;98410.28;4993681;28;20214;-78
2023/01/27 02:01:15;;;;;;;16.47;10.77;;;;;;;-0.79;100.00;98393.03;4993434;28;20221;-77
2023/01/27 02:03:44;;;;;;;15.57;9.43;;;;;;;-0.78;100.00;98390.41;4993809;28;20213;-78
2023/01/27 02:06:12;;;;;;;15.10;10.33;;;;;;;-0.76;100.00;98398.13;4993900;28;20233;-78
2023/01/27 02:08:41;;;;;;;16.73;11.03;;;;;;;-0.68;100.00;98391.06;4993875;28;20264;-78
2023/01/27 02:11:09;;;;;;;15.97;9.90;;;;;;;-0.70;100.00;98387.63;4993425;28;20217;-77
2023/01/27 02:13:37;;;;;;;13.77;9.80;;;;;;;-0.68;100.00;98385.88;4993640;28;20208;-79
2023/01/27 02:16:04;;;;;;;15.93;9.97;;;;;;;-0.70;100.00;98383.31;4993682;28;20235;-79
2023/01/27 02:18:30;;;;;;;17.67;11.07;;;;;;;-0.67;100.00;98387.56;4993558;28;20575;-78
2023/01/27 02:20:57;;;;;;;16.53;10.43;;;;;;;-0.78;100.00;98387.81;4993625;28;20224;-78
2023/01/27 02:23:44;;;;;;;17.00;11.20;;;;;;;-0.78;100.00;98384.34;4993742;28;20216;-77
2023/01/27 02:26:16;;;;;;;17.80;11.17;;;;;;;-0.80;100.00;98380.94;4993235;28;20247;-77
2023/01/27 02:28:43;;;;;;;17.03;11.03;;;;;;;-0.82;100.00;98372.31;4993567;28;20241;-77
2023/01/27 02:31:10;;;;;;;16.93;11.47;;;;;;;-0.86;100.00;98375.88;4993502;28;20670;-76
2023/01/27 02:33:36;;;;;;;19.07;11.87;;;;;;;-0.88;100.00;98383.69;4993587;28;20216;-78
2023/01/27 02:36:07;;;;;;;17.17;11.80;;;;;;;-0.87;100.00;98381.94;4993688;28;20241;-78
2023/01/27 02:38:35;;;;;;;19.03;12.27;;;;;;;-0.82;100.00;98382.69;4993549;28;20238;-78
2023/01/27 02:41:08;;;;;;;17.33;10.93;;;;;;;-0.83;100.00;98388.75;4993140;28;20806;-78
2023/01/27 02:43:36;;;;;;;17.43;11.23;;;;;;;-0.82;100.00;98390.47;4993355;28;20210;-78
2023/01/27 02:46:03;;;;;;;22.20;13.43;;;;;;;-0.74;100.00;98386.00;4993252;28;20233;-77
2023/01/27 02:48:29;;;;;;;17.00;11.53;;;;;;;-0.77;100.00;98391.25;4992997;28;20233;-79
2023/01/27 02:50:55;;;;;;;17.60;11.57;;;;;;;-0.81;100.00;98393.03;4992850;28;20682;-78
2023/01/27 02:53:22;;;;;;;20.57;12.43;;;;;;;-0.85;100.00;98380.16;4993323;28;20276;-78
2023/01/27 02:55:48;;;;;;;22.07;14.37;;;;;;;-0.81;100.00;98387.03;4994791;28;20227;-80
2023/01/27 02:58:15;;;;;;;20.00;12.63;;;;;;;-0.85;100.00;98377.56;4995070;28;20311;-78
2023/01/27 03:00:44;;;;;;;21.40;13.30;;;;;;;-0.87;100.00;98376.75;4993589;28;20221;-78
2023/01/27 03:03:11;;;;;;;18.70;12.23;;;;;;;-0.96;100.00;98382.13;4992726;28;20894;-78
2023/01/27 03:05:37;;;;;;;21.33;13.60;;;;;;;-0.87;100.00;98380.19;4992817;28;20587;-78
2023/01/27 03:08:04;;;;;;;20.70;13.03;;;;;;;-0.87;100.00;98381.94;4992811;28;20248;-78
2023/01/27 03:10:30;;;;;;;21.50;12.63;;;;;;;-0.82;100.00;98380.09;4992429;28;20219;-77
2023/01/27 03:12:57;;;;;;;18.57;13.07;;;;;;;-0.78;100.00;98380.03;4992924;28;20210;-78
2023/01/27 03:18:12;;;;;;;17.27;12.17;;;;;;;-0.77;100.00;98375.66;4992734;28;20669;-78
2023/01/27 03:20:38;;;;;;;16.17;11.00;;;;;;;-0.68;100.00;98372.91;4992391;28;20593;-78
2023/01/27 03:23:05;;;;;;;20.07;12.10;;;;;;;-0.72;100.00;98389.41;4992551;28;20212;-78
2023/01/27 03:25:32;;;;;;;19.13;11.77;;;;;;;-0.79;100.00;98378.31;4992720;28;20215;-78
2023/01/27 03:27:59;;;;;;;17.93;12.90;;;;;;;-0.81;100.00;98390.44;4992540;28;20268;-78
2023/01/27 03:30:25;;;;;;;18.37;12.60;;;;;;;-0.73;100.00;98396.34;4992212;28;20237;-78
2023/01/27 03:32:52;;;;;;;20.27;13.50;;;;;;;-0.77;100.00;98401.63;4992629;28;20587;-78
2023/01/27 03:35:21;;;;;;;20.23;12.70;;;;;;;-0.79;100.00;98393.03;4992483;28;20267;-77
2023/01/27 03:46:17;;;;;;;18.40;11.33;;;;;;;-0.83;100.00;98396.56;4992073;28;20235;-77
2023/01/27 03:48:44;;;;;;;17.03;11.33;;;;;;;-0.90;100.00;98389.78;4992363;28;20233;-77
2023/01/27 03:51:11;;;;;;;19.80;12.17;;;;;;;-0.79;100.00;98387.84;4992075;28;20231;-77
2023/01/27 03:53:38;;;;;;;18.83;11.60;;;;;;;-0.82;100.00;98388.75;4992284;28;20238;-78
2023/01/27 03:56:05;;;;;;;18.73;11.90;;;;;;;-0.86;100.00;98386.25;4992120;28;20240;-78
2023/01/27 03:58:34;;;;;;;18.73;12.13;;;;;;;-0.84;100.00;98389.66;4992127;28;20255;-78
2023/01/27 04:01:03;;;;;;;21.93;12.37;;;;;;;-0.81;100.00;98395.63;4991905;28;20219;-78
2023/01/27 04:09:03;;;;;;;26.73;14.67;;;;;;;-0.80;100.00;98397.34;4991783;28;20240;-78
2023/01/27 04:14:14;;;;;;;21.57;13.30;;;;;;;-0.76;100.00;98403.31;4992189;28;20264;-79
2023/01/27 04:16:41;;;;;;;21.53;13.87;;;;;;;-0.85;100.00;98403.53;4991901;28;20237;-78
2023/01/27 04:19:09;;;;;;;20.07;12.13;;;;;;;-0.79;100.00;98403.41;4991659;28;20208;-78
2023/01/27 04:21:38;;;;;;;22.00;14.20;;;;;;;-0.73;100.00;98398.09;4992271;28;20220;-77
2023/01/27 04:24:07;;;;;;;22.00;13.57;;;;;;;-0.74;100.00;98404.16;4991956;28;20679;-77
2023/01/27 04:26:34;;;;;;;22.03;14.33;;;;;;;-0.75;100.00;98402.47;4991929;28;20234;-78
2023/01/27 04:29:02;;;;;;;24.73;14.30;;;;;;;-0.75;100.00;98410.25;4991592;28;20240;-78
2023/01/27 04:31:28;;;;;;;22.40;14.00;;;;;;;-0.74;100.00;98411.94;4991881;28;20218;-78
2023/01/27 04:33:55;;;;;;;20.60;13.63;;;;;;;-0.65;100.00;98402.22;4991833;28;20210;-78
2023/01/27 04:36:21;;;;;;;20.10;13.70;;;;;;;-0.73;100.00;98404.16;4991989;28;20610;-78
2023/01/27 04:38:49;;;;;;;23.70;14.10;;;;;;;-0.74;100.00;98406.75;4991554;28;20683;-78
2023/01/27 04:41:16;;;;;;;23.93;14.47;;;;;;;-0.78;100.00;98405.97;4991747;28;20212;-78
2023/01/27 04:43:42;;;;;;;23.30;13.73;;;;;;;-0.75;100.00;98421.47;4991632;28;20710;-78
2023/01/27 04:48:38;;;;;;;23.37;14.20;;;;;;;-0.64;100.00;98408.25;5008027;28;20237;-82
2023/01/27 04:51:05;;;;;;;24.23;13.97;;;;;;;-0.64;100.00;98408.25;5014235;28;20213;-82
2023/01/27 04:53:31;;;;;;;23.40;13.27;;;;;;;-0.54;100.00;98404.59;5014997;28;20588;-82
2023/01/27 04:56:03;;;;;;;19.63;11.93;;;;;;;-0.55;100.00;98395.94;5014936;28;20217;-82
2023/01/27 04:58:30;;;;;;;23.93;12.83;;;;;;;-0.67;100.00;98387.56;4995104;28;20209;-82
2023/01/27 05:00:56;;;;;;;18.97;11.70;;;;;;;-0.59;100.00;98402.09;4994665;28;20242;-82
2023/01/27 05:03:23;;;;;;;19.17;11.67;;;;;;;-0.71;100.00;98401.50;4995327;28;20222;-83
2023/01/27 05:05:50;;;;;;;21.07;12.20;;;;;;;-0.71;100.00;98406.69;4995048;28;20217;-83
2023/01/27 05:08:16;;;;;;;21.10;12.73;;;;;;;-0.70;100.00;98409.25;4994781;28;20599;-83
2023/01/27 05:10:43;;;;;;;20.57;13.23;;;;;;;-0.83;100.00;98415.59;4994618;28;20319;-83
2023/01/27 05:13:12;;;;;;;19.17;12.23;;;;;;;-0.82;100.00;98416.41;4994830;28;20587;-83
2023/01/27 05:15:38;;;;;;;20.80;13.53;;;;;;;-0.77;100.00;98396.44;4994552;28;20210;-83
2023/01/27 05:18:05;;;;;;;21.37;13.30;;;;;;;-0.80;100.00;98397.34;4994660;28;20235;-83
2023/01/27 05:20:31;;;;;;;22.47;13.50;;;;;;;-0.78;100.00;98397.31;4994454;28;20220;-83
2023/01/27 05:25:41;;;;;;;20.20;12.87;;;;;;;-0.71;100.00;98412.75;4994195;28;20370;-83
2023/01/27 05:28:08;;;;;;;23.97;13.33;;;;;;;-0.79;100.00;98429.34;4994256;28;20245;-82
2023/01/27 05:30:36;;;;;;;22.27;12.93;;;;;;;-0.77;100.00;98427.56;4994310;28;20210;-82
2023/01/27 05:33:02;;;;;;;22.07;14.20;;;;;;;-0.76;100.00;98427.53;4994639;28;20206;-85
2023/01/27 05:35:31;;;;;;;22.87;14.03;;;;;;;-0.68;100.00;98432.59;4994609;28;20206;-82
2023/01/27 05:37:57;;;;;;;22.83;14.17;;;;;;;-0.70;100.00;98429.16;4994301;28;20301;-82
2023/01/27 05:40:24;;;;;;;22.03;14.03;;;;;;;-0.75;100.00;98441.38;4993852;28;20211;-84
2023/01/27 05:42:51;;;;;;;22.13;13.50;;;;;;;-0.75;100.00;98449.16;4994614;28;20223;-84
2023/01/27 05:45:17;;;;;;;19.37;11.77;;;;;;;-0.75;100.00;98446.56;4994228;28;20688;-82
2023/01/27 05:47:48;;;;;;;21.37;13.07;;;;;;;-0.75;100.00;98446.56;4993982;28;20237;-82
2023/01/27 05:50:15;;;;;;;22.37;13.03;;;;;;;-0.81;100.00;98449.28;4994010;28;20210;-82
2023/01/27 05:52:42;;;;;;;20.13;12.17;;;;;;;-0.76;100.00;98444.84;4994063;28;20210;-82
2023/01/27 05:55:09;;;;;;;20.37;13.07;;;;;;;-0.86;100.00;98443.31;4993983;28;20232;-82
2023/01/27 05:57:35;;;;;;;19.97;12.30;;;;;;;-0.77;100.00;98437.94;4994141;28;20231;-82
2023/01/27 06:00:02;;;;;;;20.67;12.67;;;;;;;-0.76;100.00;98439.66;4993786;28;20677;-82
2023/01/27 06:02:29;;;;;;;22.97;12.93;;;;;;;-0.78;100.00;98446.63;4993181;28;20698;-82
2023/01/27 06:04:56;;;;;;;19.97;12.73;;;;;;;-0.76;100.00;98440.50;4993860;28;20715;-82
2023/01/27 06:07:23;;;;;;;20.43;11.87;;;;;;;-0.78;100.00;98436.25;4993705;28;20796;-82
2023/01/27 06:09:50;;;;;;;18.63;12.00;;;;;;;-0.79;100.00;98444.91;4993295;28;20231;-82
2023/01/27 06:12:16;;;;;;;20.90;12.57;;;;;;;-0.78;100.00;98447.50;4993687;28;20348;-82
2023/01/27 06:14:43;;;;;;;18.87;12.17;;;;;;;-0.74;100.00;98440.50;4993559;28;20678;-82
2023/01/27 06:17:09;;;;;;;20.77;12.63;;;;;;;-0.66;100.00;98433.41;4993649;28;20263;-82
2023/01/27 06:19:36;;;;;;;19.07;11.60;;;;;;;-0.74;100.00;98443.09;4993581;28;20232;-82
2023/01/27 06:22:03;;;;;;;21.37;12.53;;;;;;;-0.70;100.00;98444.72;4994039;28;20220;-83
2023/01/27 06:24:30;;;;;;;20.80;12.50;;;;;;;-0.75;100.00;98444.81;4993482;28;20207;-84
2023/01/27 06:26:56;;;;;;;19.17;12.40;;;;;;;-0.65;100.00;98443.75;4993296;28;20239;-84
2023/01/27 06:29:23;;;;;;;19.30;11.87;;;;;;;-0.68;100.00;98440.38;4992851;28;20762;-84
2023/01/27 06:31:49;;;;;;;19.00;12.07;;;;;;;-0.71;100.00;98443.00;4993361;28;20213;-84
2023/01/27 06:34:16;;;;;;;18.90;11.80;;;;;;;-0.78;100.00;98446.63;4993271;28;20234;-81
2023/01/27 06:36:42;;;;;;;22.23;12.40;;;;;;;-0.74;100.00;98443.94;4992941;28;20260;-82
2023/01/27 06:39:10;;;;;;;18.43;11.27;;;;;;;-0.63;100.00;98446.34;4992977;28;20216;-84
2023/01/27 06:41:37;;;;;;;20.27;12.27;;;;;;;-0.65;100.00;98458.47;4993164;28;20212;-84
2023/01/27 06:44:03;;;;;;;18.23;10.87;;;;;;;-0.66;100.00;98451.56;4993169;28;20220;-82
2023/01/27 06:46:30;;;;;;;19.13;11.83;;;;;;;-0.71;100.00;98458.59;4992979;28;20262;-82
2023/01/27 06:48:56;;;;;;;20.97;12.63;;;;;;;-0.74;100.00;98469.88;4992632;28;20229;-81
2023/01/27 06:51:23;;;;;;;20.07;11.80;;;;;;;-0.68;100.00;98474.09;4992682;28;20221;-84
2023/01/27 06:53:49;;;;;;;19.27;11.93;;;;;;;-0.71;100.00;98468.97;4992975;28;20217;-83
2023/01/27 06:56:17;;;;;;;18.53;11.83;;;;;;;-0.55;100.00;98470.38;4992822;28;20217;-81
2023/01/27 06:58:44;;;;;;;20.63;11.40;;;;;;;-0.62;100.00;98476.59;4992622;28;20218;-83
2023/01/27 07:01:10;;;;;;;18.40;11.47;;;;;;;-0.60;100.00;98482.59;4992603;28;20224;-82
2023/01/27 07:03:37;;;;;;;21.20;12.67;;;;;;;-0.63;100.00;98493.06;4992609;28;20307;-82
2023/01/27 07:06:04;;;;;;;18.83;11.50;;;;;;;-0.63;100.00;98499.06;4992658;28;20219;-81
2023/01/27 07:08:30;;;;;;;22.33;11.80;;;;;;;-0.66;100.00;98498.28;4992434;28;20236;-82
2023/01/27 07:10:57;;;;;;;18.23;11.17;;;;;;;-0.65;100.00;98503.44;4992173;28;20691;-82
2023/01/27 07:13:24;;;;;;;17.03;11.57;;;;;;;-0.60;100.00;98509.41;4992463;28;20243;-82
2023/01/27 07:15:54;;;;;;;28.27;12.20;;;;;;;-0.61;100.00;98502.47;4992420;28;20216;-82
2023/01/27 07:18:21;;;;;;;17.97;11.10;;;;;;;-0.67;100.00;98504.38;4992294;28;20230;-82
2023/01/27 07:20:47;;;;;;;16.97;10.63;;;;;;;-0.64;100.00;98506.88;4991975;28;20213;-82
2023/01/27 07:23:14;;;;;;;17.73;10.67;;;;;;;-0.58;100.00;98504.16;4992414;28;20243;-84
2023/01/27 07:25:41;;;;;;;16.83;10.80;;;;;;;-0.66;100.00;98503.47;4992352;28;20290;-83
2023/01/27 07:28:07;;;;;;;14.60;9.10;;;;;;;-0.61;100.00;98502.47;4992186;28;20240;-83
2023/01/27 07:30:37;;;;;;;16.17;10.37;;;;;;;-0.66;100.00;98503.47;4992000;28;20213;-83
2023/01/27 07:33:05;;;;;;;18.53;10.37;;;;;;;-0.62;100.00;98507.72;4992116;28;20217;-83
2023/01/27 07:35:31;;;;;;;17.80;10.23;;;;;;;-0.66;100.00;98511.25;4991874;28;20217;-83
2023/01/27 07:37:58;;;;;;;17.17;10.80;;;;;;;-0.61;100.00;98518.06;4992109;28;20229;-83
2023/01/27 07:40:25;;;;;;;14.27;9.67;;;;;;;-0.55;100.00;98524.88;4991840;28;20213;-83
2023/01/27 07:42:51;;;;;;;17.40;10.33;;;;;;;-0.56;100.00;98528.38;4992010;28;20225;-83
2023/01/27 07:45:18;;;;;;;19.10;9.83;;;;;;;-0.59;100.00;98520.63;4991856;28;20710;-83
2023/01/27 07:47:45;;;;;;;15.80;9.20;;;;;;;-0.53;100.00;98523.97;4991927;28;20736;-83
2023/01/27 07:50:12;;;;;;;15.17;8.90;;;;;;;-0.56;100.00;98523.19;4991705;28;20243;-79
2023/01/27 07:52:38;;;;;;;16.47;9.10;;;;;;;-0.54;100.00;98524.00;4992021;28;20211;-79
2023/01/27 07:55:06;;;;;;;15.87;9.37;;;;;;;-0.53;100.00;98534.38;4991998;28;20679;-84
2023/01/27 07:57:33;;;;;;;15.90;9.57;;;;;;;-0.51;100.00;98529.16;4998307;28;20236;-90
2023/01/27 07:59:59;;;;;;;17.13;9.97;;;;;;;-0.54;100.00;98524.00;4995778;28;20695;-93
2023/01/27 08:02:27;;;;;;;16.63;9.33;;;;;;;-0.57;100.00;98535.28;4992285;28;20217;-84
2023/01/27 08:04:55;;;;;;;14.43;8.77;;;;;;;-0.56;100.00;98533.56;4991896;28;20305;-84
2023/01/27 08:07:21;;;;;;;15.20;8.87;;;;;;;-0.58;100.00;98533.59;4991914;28;20245;-84
2023/01/27 08:09:48;;;;;;;16.27;9.73;;;;;;;-0.64;100.00;98535.44;4991540;28;20240;-86
2023/01/27 08:12:15;;;;;;;19.60;10.83;;;;;;;-0.73;100.00;98535.63;4991837;28;20231;-86
2023/01/27 08:14:41;;;;;;;17.03;9.90;;;;;;;-0.72;100.00;98539.91;4991786;28;20220;-84
2023/01/27 08:17:08;;;;;;;17.07;9.23;;;;;;;-0.65;100.00;98550.16;4991672;28;20233;-84
2023/01/27 08:19:34;;;;;;;18.13;9.47;;;;;;;-0.60;100.00;98550.06;4991458;28;20214;-84
2023/01/27 08:22:02;;;;;;;14.93;9.07;;;;;;;-0.62;100.00;98555.28;4991749;28;20236;-84
2023/01/27 08:24:29;;;;;;;14.73;9.40;;;;;;;-0.67;100.00;98553.66;4993026;28;20212;-84
2023/01/27 08:26:56;;;;;;;14.10;8.80;;;;;;;-0.67;100.00;98553.66;4995503;28;20237;-83
2023/01/27 08:29:22;;;;;;;16.47;8.63;;;;;;;-0.57;100.00;98563.00;4995181;28;20237;-83
2023/01/27 08:31:49;;;;;;;17.07;9.17;;;;;;;-0.59;100.00;98556.97;4995503;28;20216;-84
2023/01/27 08:34:16;;;;;;;17.87;10.03;;;;;;;-0.57;100.00;98560.41;4995465;28;20222;-83
2023/01/27 08:36:43;;;;;;;15.70;9.67;;;;;;;-0.50;100.00;98557.66;4995375;28;20789;-83
2023/01/27 08:39:11;;;;;;;15.73;9.10;;;;;;;-0.42;100.00;98562.72;4995176;28;20549;-81
2023/01/27 08:41:38;;;;;;;17.53;9.73;;;;;;;-0.42;100.00;98560.97;4995276;28;20212;-80
2023/01/27 08:44:04;;;;;;;18.37;9.63;;;;;;;-0.41;100.00;98556.63;4996048;28;20210;-88
2023/01/27 08:46:31;;;;;;;17.93;9.30;;;;;;;-0.46;100.00;98558.44;4995905;28;20237;-86
2023/01/27 08:48:57;;;;;;;16.33;9.20;;;;;;;-0.41;100.00;98561.81;4996482;28;20237;-87
2023/01/27 08:51:24;;;;;;;18.50;10.50;;;;;;;-0.39;100.00;98555.72;4995567;28;20218;-84
2023/01/27 08:53:51;;;;;;;16.00;9.57;;;;;;;-0.38;100.00;98554.81;4995224;28;20240;-84
2023/01/27 08:56:19;;;;;;;17.40;11.20;;;;;;;-0.34;100.00;98547.81;4993132;28;20440;-85
2023/01/27 08:58:47;;;;;;;15.73;9.17;;;;;;;-0.34;100.00;98556.47;4993212;28;20224;-86
2023/01/27 09:01:14;;;;;;;16.70;9.77;;;;;;;-0.38;100.00;98561.78;4994264;28;20587;-86
2023/01/27 09:03:41;;;;;;;16.13;10.13;;;;;;;-0.42;100.00;98566.19;4994252;28;20235;-86
2023/01/27 09:06:09;;;;;;;17.47;9.60;;;;;;;-0.44;100.00;98573.13;4993240;28;20210;-87
2023/01/27 09:08:36;;;;;;;18.33;10.07;;;;;;;-0.44;100.00;98567.09;4993062;28;20213;-85
2023/01/27 09:11:08;;;;;;;18.97;9.83;;;;;;;-0.51;100.00;98560.31;4993832;28;20603;-87
2023/01/27 09:13:36;;;;;;;17.70;9.73;;;;;;;-0.46;100.00;98563.63;4994302;28;20719;-84
2023/01/27 09:16:03;;;;;;;17.70;9.70;;;;;;;-0.44;100.00;98559.28;4994150;28;20209;-83
2023/01/27 09:18:30;;;;;;;17.50;9.90;;;;;;;-0.47;100.00;98561.94;4994252;28;20228;-87
2023/01/27 09:20:56;;;;;;;20.03;10.73;;;;;;;-0.44;100.00;98567.09;4994107;28;20309;-85
2023/01/27 09:23:23;;;;;;;19.93;9.97;;;;;;;-0.35;100.00;98556.50;4994073;28;20220;-89
2023/01/27 09:25:49;;;;;;;17.80;9.50;;;;;;;-0.35;100.00;98556.50;4993841;28;20216;-87
2023/01/27 09:28:16;;;;;;;20.20;9.93;;;;;;;-0.45;100.00;98549.81;4993739;28;20236;-87
2023/01/27 09:30:45;;;;;;;21.70;10.53;;;;;;;-0.43;100.00;98555.81;4995452;28;20280;-87
2023/01/27 09:33:12;;;;;;;20.60;10.67;;;;;;;-0.35;100.00;98549.59;4999312;28;20668;-86
2023/01/27 09:35:43;;;;;;;19.53;10.47;;;;;;;-0.30;100.00;98544.28;4992378;28;20214;-86
2023/01/27 09:38:10;;;;;;;20.73;10.60;;;;;;;-0.30;99.94;98549.50;4993820;28;20577;-87
2023/01/27 09:40:51;;;;;;;19.57;10.63;;;;;;;-0.31;99.79;98555.56;4993534;28;20206;-89
2023/01/27 09:44:02;;;;;;;19.73;10.43;;;;;;;-0.32;100.00;98562.50;4993527;28;20233;-88
2023/01/27 09:46:43;;;;;;;18.03;9.90;;;;;;;-0.28;100.00;98562.41;4936525;28;20237;-87
2023/01/27 09:49:28;;;;;;;22.90;11.20;;;;;;;-0.13;99.58;98556.91;4993184;28;20649;-89
2023/01/27 09:52:14;;;;;;;18.63;10.13;;;;;;;-0.08;98.75;98541.22;4993515;28;20214;-87
2023/01/27 09:54:56;;;;;;;19.03;10.63;;;;;;;-0.01;98.43;98546.25;4993069;28;20217;-87
2023/01/27 09:57:36;;;;;;;18.60;10.13;;;;;;;-0.09;98.56;98549.91;4993214;28;20289;-88
2023/01/27 10:00:26;;;;;;;18.27;10.37;;;;;;;0.01;98.55;98546.25;4992893;28;20213;-88
2023/01/27 10:03:22;;;;;;;18.20;9.43;;;;;;;0.03;97.38;98550.53;4993213;28;20214;-87
2023/01/27 10:06:08;;;;;;;17.63;9.67;;;;;;;0.09;97.89;98544.31;4993032;28;20697;-86
2023/01/27 10:08:51;;;;;;;17.80;9.40;;;;;;;0.17;96.30;98542.41;4992388;28;20221;-90
2023/01/27 10:11:21;;;;;;;15.93;9.33;;;;;;;0.26;94.40;98535.25;4999173;28;20229;-95
2023/01/27 10:14:01;;;;;;;18.83;9.40;;;;;;;0.24;93.51;98521.47;4996133;28;20220;-95
2023/01/27 10:16:42;;;;;;;16.07;9.20;;;;;;;0.23;92.34;98519.75;4997361;28;20253;-95
2023/01/27 10:19:25;;;;;;;16.77;9.33;;;;;;;0.23;94.09;98532.75;4995469;28;20550;-93
2023/01/27 10:21:59;;;;;;;14.50;7.50;;;;;;;0.29;93.45;98532.63;4994912;28;20212;-93
2023/01/27 10:24:40;;;;;;;14.63;8.57;;;;;;;0.37;92.82;98519.44;4995494;28;20581;-93
2023/01/27 10:27:13;;;;;;;14.77;8.37;;;;;;;0.39;92.36;98518.50;4995548;28;20226;-95
2023/01/27 10:29:45;;;;;;;14.73;8.23;;;;;;;0.42;92.39;98528.84;4994815;28;20233;-83
2023/01/27 10:32:22;;;;;;;14.67;7.77;;;;;;;0.42;92.93;98528.84;4992535;28;20208;-81
2023/01/27 10:35:00;;;;;;;13.43;7.47;;;;;;;0.43;94.64;98543.53;4992713;28;20210;-84
2023/01/27 10:37:34;;;;;;;12.70;7.50;;;;;;;0.45;94.08;98533.94;4992344;28;20239;-85
2023/01/27 10:40:08;;;;;;;13.47;7.40;;;;;;;0.48;94.60;98528.69;4992330;28;20668;-86
2023/01/27 10:42:41;;;;;;;11.93;6.97;;;;;;;0.52;95.10;98532.06;4992479;28;20217;-86
2023/01/27 10:45:27;;;;;;;13.07;7.40;;;;;;;0.55;95.98;98542.44;4992203;28;20263;-85
2023/01/27 10:48:05;;;;;;;12.23;7.13;;;;;;;0.57;95.39;98544.06;4991717;28;20724;-84
2023/01/27 10:50:38;;;;;;;12.73;7.60;;;;;;;0.66;94.29;98549.06;4991978;28;20696;-84
2023/01/27 10:53:12;;;;;;;14.37;7.70;;;;;;;0.62;94.25;98550.03;4992100;28;20209;-85
2023/01/27 10:55:45;;;;;;;12.57;7.70;;;;;;;0.62;94.32;98539.63;4992411;28;20214;-85
2023/01/27 10:58:19;;;;;;;14.80;7.70;;;;;;;0.65;93.33;98534.38;4991897;28;20237;-85
2023/01/27 11:00:49;;;;;;;12.10;7.73;;;;;;;0.63;91.56;98530.91;4992029;28;20256;-85
2023/01/27 11:03:22;;;;;;;13.33;7.40;;;;;;;0.69;91.11;98517.78;4992095;28;20210;-85
2023/01/27 11:05:52;;;;;;;12.53;7.43;;;;;;;0.60;90.42;98564.81;4992267;28;20214;-85
2023/01/27 11:08:23;;;;;;;13.00;8.17;;;;;;;0.60;92.48;98569.16;4991020;28;20696;-85
2023/01/27 11:13:45;;;;;;;10.93;6.90;;;;;;;0.64;90.66;98565.59;4976294;28;20267;-85
2023/01/27 11:16:15;;;;;;;9.37;6.23;;;;;;;0.66;90.13;98559.47;4992133;28;20210;-85
2023/01/27 11:18:44;;;;;;;12.40;7.20;;;;;;;0.62;90.08;98557.81;4992058;28;20210;-85
2023/01/27 11:21:19;;;;;;;10.40;6.60;;;;;;;0.72;90.83;98559.34;4991550;28;20301;-77
2023/01/27 11:23:50;;;;;;;10.90;6.60;;;;;;;0.76;89.53;98560.13;4991848;28;20209;-85
2023/01/27 11:26:27;;;;;;;8.53;5.70;;;;;;;0.76;89.76;98565.31;4991974;28;20301;-87
2023/01/27 11:29:08;;;;;;;11.57;6.43;;;;;;;0.74;91.52;98570.53;4991933;28;20220;-88
2023/01/27 11:31:42;;;;;;;9.63;6.53;;;;;;;0.74;92.02;98562.75;4991769;28;20234;-88
2023/01/27 11:34:16;;;;;;;10.43;6.70;;;;;;;0.76;92.38;98566.19;4991870;28;20218;-84
2023/01/27 11:36:44;;;;;;;12.50;7.43;;;;;;;0.90;92.61;98558.91;4993018;28;20281;-90
2023/01/27 11:39:11;;;;;;;13.07;7.87;;;;;;;0.92;90.62;98544.09;4991347;28;20210;-88
2023/01/27 11:41:42;;;;;;;12.90;8.17;;;;;;;0.91;89.22;98539.78;4991848;28;20304;-89
2023/01/27 11:44:19;;;;;;;13.07;8.13;;;;;;;0.86;89.00;98541.63;4992320;28;20206;-93
2023/01/27 11:46:47;;;;;;;14.17;8.50;;;;;;;0.85;90.22;98555.53;4992400;28;20245;-90
2023/01/27 11:49:18;;;;;;;14.33;8.97;;;;;;;0.87;91.25;98548.53;4992541;28;20243;-90
2023/01/27 11:51:48;;;;;;;12.83;8.20;;;;;;;0.84;91.99;98543.44;4992476;28;20252;-87
2023/01/27 11:54:21;;;;;;;13.03;7.93;;;;;;;0.75;92.92;98551.44;4992314;28;20268;-88
2023/01/27 11:56:50;;;;;;;15.67;8.93;;;;;;;0.83;94.44;98557.34;4992576;28;20325;-84
2023/01/27 11:59:19;;;;;;;14.67;8.63;;;;;;;0.89;93.72;98546.78;4991150;28;20221;-85